Pagrindinis puslapis
METAR-TAF:

METAR-TAF

Oro uostai :

Bamakas, Malis

platuma: 12-32N, ilguma: 007-57W, Aukštis: 380 m

Dabartinis oras

Ataskaita buvo paskelbta 53 minutes, ne 20:00 UTC
Vėjas 4 kt iš Rytų
Temperatūra 32°C
Drėgmė 14%
Slėgis 1011 hPa
Matomumas 10 km arba daugiau
nėra debesų žemiau 1500 m ir nėra kamuolinių lietaus debesų

METAR: GABS 212000Z 09004KT CAVOK 32/01 Q1011 NOSIG

Laikas: 20:53 (20:53 UTC)

Prognozė

Ataskaita buvo paskelbta 3 valandos ir 53 minutes, ne 17:00 UTC
Prognozė galioja nuo 21 metu 18 UTC su 22 metu 24 UTC
Vėjas 10 kt iš Rytų/Šiaurės Rytų
Matomumas: 8000 m
Tikimybė 30% :
Laikinai
nuo 22 metu 08 UTC su 22 metu 12 UTC
Matomumas: 4000 m
dulkės

TAF: GABS 211700Z 2118/2224 060010KT 8000 NSC PROB30 TEMPO 2208/2212 4000 DU

Orai ataskaitas ir orų prognozės (METAR, TAF).

turimą stotys yra geltonos ir raudonos taškus žemėlapyje.

Perkelti pele per norėdami pamatyti stoties vardą.

Tada spustelėkite, norėdami matyti oro stebėjimo ir prognozės.

Norėdami pakeisti žemėlapį: spustelėkite ant žalios mygtukų su juodo kryžiaus žemyn,; žalią mygtuką su brūkšneliu, jei norite nutolinti; arba žalių rodyklių gretimoms žemėlapius.


METAR-TAF: